Flight Track Log - Related Links

Times and Time Zones

All times are in EDT time to prevent confusion due to time zone crossing. See the DAL1349 flight status page for this flight to view local times or setup timezone preferences in your user account.

Time Position Orientation Groundspeed Altitude Reporting Facility
EDT Latitude Longitude Course Direction KTS MPH feet Rate Location/Type
Tue 07:17:55 AM 38.3517 -81.6222 207° Southwest 164 189 2,800  Level Indianapolis Center
Tue 07:18:56 AM 38.2825 -81.6606 204° Southwest 237 273 6,000 3,268 Climbing Indianapolis Center
Tue 07:19:58 AM 38.2125 -81.7019 205° Southwest 273 314 9,500 3,024 Climbing Indianapolis Center
Tue 07:20:00 AM 38.0709 -81.7562 202° Southwest  Level FlightAware Approximate
Tue 07:20:59 AM 38.1358 -81.7467 205° Southwest 299 344 12,200  Level Indianapolis Center
Tue 07:21:00 AM 37.9695 -81.8096 204° Southwest  Level FlightAware Approximate
Tue 07:22:00 AM 37.8688 -81.8655 204° Southwest  Level FlightAware Approximate
Tue 07:22:00 AM 38.0442 -81.7981 204° Southwest 354 407 15,600  Level Indianapolis Center
Tue 07:23:00 AM 37.7811 -81.9218 207° Southwest  Level FlightAware Approximate
Tue 07:23:02 AM 37.9492 -81.8533 205° Southwest 372 428 18,200  Level Indianapolis Center
Tue 07:24:03 AM 37.8500 -81.9103 204° Southwest 389 448 21,300 2,656 Climbing Indianapolis Center
Tue 07:25:04 AM 37.7503 -81.9675 204° Southwest 397 457 23,600 2,293 Climbing Indianapolis Center
Tue 07:26:06 AM 37.6247 -82.0375 204° Southwest 417 480 26,000 2,098 Climbing Indianapolis Center
Tue 07:27:07 AM 37.5150 -82.1017 205° Southwest 431 496 27,900 1,770 Climbing Indianapolis Center
Tue 07:28:08 AM 37.4006 -82.1642 203° Southwest 445 512 29,600 1,189 Climbing Indianapolis Center
Tue 07:28:53 AM 37.3289 -82.2067 205° Southwest 456 525 30,000 229 Climbing Atlanta Center
Tue 07:29:53 AM 37.2175 -82.2692 204° Southwest 451 519 30,000  Level Atlanta Center
Tue 07:30:53 AM 37.1036 -82.3317 204° Southwest 451 519 30,000  Level Atlanta Center
Tue 07:31:53 AM 36.9817 -82.3992 204° Southwest 445 512 30,000  Level Atlanta Center
Tue 07:32:14 AM 36.9522 -82.4161 205° Southwest 440 506 30,000  Level Indianapolis Center
Tue 07:32:53 AM 36.8719 -82.4611 204° Southwest 445 512 30,000  Level Atlanta Center
Tue 07:33:53 AM 36.7581 -82.5231 204° Southwest 440 506 30,000  Level Atlanta Center
Tue 07:34:53 AM 36.6461 -82.5847 204° Southwest 440 506 30,000  Level Atlanta Center
Tue 07:35:53 AM 36.5342 -82.6461 204° Southwest 440 506 30,000  Level Atlanta Center
Tue 07:36:53 AM 36.4222 -82.7075 204° Southwest 440 506 30,000  Level Atlanta Center
Tue 07:37:53 AM 36.3103 -82.7686 204° Southwest 440 506 30,000  Level Atlanta Center
Tue 07:38:53 AM 36.1942 -82.8322 204° Southwest 446 513 30,000  Level Atlanta Center
Tue 07:39:53 AM 36.0758 -82.8981 204° Southwest 458 527 30,000  Level Atlanta Center
Tue 07:40:53 AM 35.9597 -82.9586 203° Southwest 458 527 30,000  Level Atlanta Center
Tue 07:41:53 AM 35.8456 -83.0294 207° Southwest 458 527 30,000  Level Atlanta Center
Tue 07:42:53 AM 35.7314 -83.0947 205° Southwest 458 527 30,000  Level Atlanta Center
Tue 07:43:53 AM 35.6169 -83.1600 205° Southwest 458 527 30,000 -350 Level Atlanta Center
Tue 07:44:53 AM 35.5153 -83.2197 206° Southwest 458 527 29,300 -850 Descending Atlanta Center
Tue 07:45:53 AM 35.4031 -83.2844 205° Southwest 453 521 28,300 -1,000 Descending Atlanta Center
Tue 07:46:53 AM 35.2950 -83.3467 205° Southwest 447 514 27,300 -1,000 Descending Atlanta Center
Tue 07:47:53 AM 35.1806 -83.4111 205° Southwest 447 514 26,300 -1,100 Descending Atlanta Center
Tue 07:48:53 AM 35.0661 -83.4753 205° Southwest 442 509 25,100 -1,600 Descending Atlanta Center
Tue 07:49:53 AM 34.9619 -83.5319 204° Southwest 435 501 23,100 -2,200 Descending Atlanta Center
Tue 07:50:53 AM 34.8578 -83.5908 205° Southwest 424 488 20,700 -2,200 Descending Atlanta Center
Tue 07:51:53 AM 34.7536 -83.6519 206° Southwest 405 466 18,700 -1,350 Descending Atlanta Center
Tue 07:52:53 AM 34.6558 -83.7081 205° Southwest 388 447 18,000 -850 Descending Atlanta Center
Tue 07:53:53 AM 34.5558 -83.7639 205° Southwest 388 447 17,000 -1,000 Descending Atlanta Center
Tue 07:54:53 AM 34.4578 -83.8169 204° Southwest 401 461 16,000 -1,000 Descending Atlanta Center
Tue 07:55:53 AM 34.3556 -83.8753 205° Southwest 401 461 15,000 -1,000 Descending Atlanta Center
Tue 07:56:53 AM 34.2575 -83.9283 204° Southwest 394 453 14,000 -950 Descending Atlanta Center
Tue 07:57:53 AM 34.1617 -83.9861 207° Southwest 389 448 13,100 -877 Descending Atlanta Center
Tue 07:59:03 AM 34.0667 -84.0667 215° Southwest 373 429 12,100 -465 Descending Atlanta TRACON
Tue 08:00:02 AM 33.9833 -84.1333 214° Southwest 365 420 12,100  Level Atlanta TRACON
Tue 08:00:57 AM 33.9000 -84.2000 214° Southwest 367 422 12,100 -55 Level Atlanta TRACON
Tue 08:01:51 AM 33.8333 -84.2667 220° Southwest 362 417 12,000 -53 Descending Atlanta TRACON
Tue 08:02:51 AM 33.7500 -84.3333 214° Southwest 289 333 12,000 -1,053 Level Atlanta TRACON
Tue 08:03:45 AM 33.7333 -84.4000 253° West 265 305 10,000 -2,263 Descending Atlanta TRACON
Tue 08:04:45 AM 33.7333 -84.4833 270° West 262 302 7,700 -2,105 Descending Atlanta TRACON
Tue 08:05:39 AM 33.7333 -84.5500 270° West 240 276 6,000 -1,805 Descending Atlanta TRACON
Tue 08:06:38 AM 33.7333 -84.6333 270° West 244 281 4,300 -1,000 Descending Atlanta TRACON
Tue 08:07:33 AM 33.7000 -84.6667 220° Southwest 215 247 4,100 -157 Descending Atlanta TRACON
Tue 08:08:33 AM 33.6667 -84.6333 140° Southeast 184 212 4,000 -350 Descending Atlanta TRACON
Tue 08:09:33 AM 33.6500 -84.5833 112° Southeast 181 208 3,400 -706 Descending Atlanta TRACON
Tue 08:10:32 AM 33.6500 -84.5333 90° East 145 167 2,600 -814 Descending Atlanta TRACON

Login

Don't have an account? Register now (free) for customized features, flight alerts, and more!